sensor_id;sensor_type;location;lat;lon;timestamp;pressure;altitude;pressure_sealevel;temperature;humidity
8051;BME280;4068;42.158;24.732;2022-08-11T00:01:18;99565.88;;;22.55;89.74
8051;BME280;4068;42.158;24.732;2022-08-11T00:03:59;99566.53;;;22.64;88.96
8051;BME280;4068;42.158;24.732;2022-08-11T00:06:31;99557.16;;;22.60;89.06
8051;BME280;4068;42.158;24.732;2022-08-11T00:08:58;99555.94;;;22.63;88.92
8051;BME280;4068;42.158;24.732;2022-08-11T00:11:39;99555.88;;;22.49;89.95
8051;BME280;4068;42.158;24.732;2022-08-11T00:14:25;99550.88;;;22.46;90.00
8051;BME280;4068;42.158;24.732;2022-08-11T00:16:54;99558.13;;;22.39;90.65
8051;BME280;4068;42.158;24.732;2022-08-11T00:19:26;99553.97;;;22.36;91.01
8051;BME280;4068;42.158;24.732;2022-08-11T00:21:53;99553.50;;;22.33;90.69
8051;BME280;4068;42.158;24.732;2022-08-11T00:24:20;99553.88;;;22.30;91.73
8051;BME280;4068;42.158;24.732;2022-08-11T00:26:49;99550.34;;;22.29;91.17
8051;BME280;4068;42.158;24.732;2022-08-11T00:29:17;99559.69;;;22.27;91.77
8051;BME280;4068;42.158;24.732;2022-08-11T00:31:53;99551.53;;;22.20;92.47
8051;BME280;4068;42.158;24.732;2022-08-11T00:34:30;99532.28;;;21.95;93.00
8051;BME280;4068;42.158;24.732;2022-08-11T00:37:03;99556.06;;;22.13;93.52
8051;BME280;4068;42.158;24.732;2022-08-11T00:39:33;99556.44;;;22.03;94.15
8051;BME280;4068;42.158;24.732;2022-08-11T01:13:07;99559.34;;;21.08;100.00
8051;BME280;4068;42.158;24.732;2022-08-11T01:48:47;99550.00;;;20.89;100.00
8051;BME280;4068;42.158;24.732;2022-08-11T01:59:52;99554.47;;;20.97;100.00
8051;BME280;4068;42.158;24.732;2022-08-11T02:02:44;99552.78;;;20.96;100.00
8051;BME280;4068;42.158;24.732;2022-08-11T02:19:40;99549.72;;;20.99;100.00
8051;BME280;4068;42.158;24.732;2022-08-11T02:22:57;99544.50;;;20.97;100.00
8051;BME280;4068;42.158;24.732;2022-08-11T02:25:59;99549.16;;;21.03;100.00
8051;BME280;4068;42.158;24.732;2022-08-11T02:28:34;99552.28;;;21.07;99.65
8051;BME280;4068;42.158;24.732;2022-08-11T02:31:18;99549.00;;;21.12;98.90
8051;BME280;4068;42.158;24.732;2022-08-11T02:40:20;99539.31;;;21.17;98.40
8051;BME280;4068;42.158;24.732;2022-08-11T02:45:31;99545.69;;;21.10;100.00
8051;BME280;4068;42.158;24.732;2022-08-11T02:51:08;99546.31;;;21.12;98.98
8051;BME280;4068;42.158;24.732;2022-08-11T02:59:28;99544.09;;;21.15;97.75
8051;BME280;4068;42.158;24.732;2022-08-11T03:02:25;99551.00;;;21.25;97.17
8051;BME280;4068;42.158;24.732;2022-08-11T03:07:40;99562.44;;;21.27;98.17
8051;BME280;4068;42.158;24.732;2022-08-11T03:10:25;99552.81;;;21.17;97.83
8051;BME280;4068;42.158;24.732;2022-08-11T03:13:16;99559.47;;;21.21;98.58
8051;BME280;4068;42.158;24.732;2022-08-11T03:21:55;99556.47;;;21.31;97.45
8051;BME280;4068;42.158;24.732;2022-08-11T03:24:28;99561.28;;;21.36;96.89
8051;BME280;4068;42.158;24.732;2022-08-11T03:27:07;99538.56;;;21.24;97.88
8051;BME280;4068;42.158;24.732;2022-08-11T03:29:50;99522.00;;;21.27;96.74
8051;BME280;4068;42.158;24.732;2022-08-11T03:34:56;99552.56;;;21.55;95.59
8051;BME280;4068;42.158;24.732;2022-08-11T03:37:27;99545.16;;;21.64;94.78
8051;BME280;4068;42.158;24.732;2022-08-11T03:46:34;99548.25;;;21.89;93.28
8051;BME280;4068;42.158;24.732;2022-08-11T03:52:22;99554.88;;;22.22;89.52
8051;BME280;4068;42.158;24.732;2022-08-11T03:57:47;99560.38;;;22.35;88.81
8051;BME280;4068;42.158;24.732;2022-08-11T04:20:12;99568.72;;;22.89;85.15
8051;BME280;4068;42.158;24.732;2022-08-11T04:40:17;99576.75;;;23.37;83.04
8051;BME280;4068;42.158;24.732;2022-08-11T04:52:16;99567.78;;;24.10;79.68
8051;BME280;4068;42.158;24.732;2022-08-11T04:58:47;99569.75;;;24.62;77.73
8051;BME280;4068;42.158;24.732;2022-08-11T05:02:03;99566.72;;;24.84;76.35
8051;BME280;4068;42.158;24.732;2022-08-11T05:11:36;99560.69;;;24.81;78.51
8051;BME280;4068;42.158;24.732;2022-08-11T05:17:07;99571.06;;;25.23;78.70
8051;BME280;4068;42.158;24.732;2022-08-11T05:19:53;99551.19;;;25.29;78.81
8051;BME280;4068;42.158;24.732;2022-08-11T05:22:43;99569.34;;;25.61;76.44
8051;BME280;4068;42.158;24.732;2022-08-11T05:25:31;99570.25;;;25.80;76.23
8051;BME280;4068;42.158;24.732;2022-08-11T05:28:32;99557.44;;;25.87;75.53
8051;BME280;4068;42.158;24.732;2022-08-11T05:31:21;99562.94;;;26.06;74.18
8051;BME280;4068;42.158;24.732;2022-08-11T05:34:14;99546.19;;;26.09;73.55
8051;BME280;4068;42.158;24.732;2022-08-11T05:40:18;99564.44;;;26.01;74.24
8051;BME280;4068;42.158;24.732;2022-08-11T05:43:10;99565.44;;;26.26;71.94
8051;BME280;4068;42.158;24.732;2022-08-11T05:46:01;99551.44;;;26.04;71.32
8051;BME280;4068;42.158;24.732;2022-08-11T05:48:46;99573.75;;;26.12;71.10
8051;BME280;4068;42.158;24.732;2022-08-11T05:51:35;99565.88;;;26.04;71.66
8051;BME280;4068;42.158;24.732;2022-08-11T05:54:20;99573.53;;;26.14;71.41
8051;BME280;4068;42.158;24.732;2022-08-11T05:57:06;99573.66;;;26.19;71.54
8051;BME280;4068;42.158;24.732;2022-08-11T05:59:32;99548.22;;;26.13;70.38
8051;BME280;4068;42.158;24.732;2022-08-11T06:02:06;99565.50;;;26.38;68.90
8051;BME280;4068;42.158;24.732;2022-08-11T06:04:33;99570.06;;;26.25;70.39
8051;BME280;4068;42.158;24.732;2022-08-11T06:07:04;99575.91;;;26.22;70.31
8051;BME280;4068;42.158;24.732;2022-08-11T06:09:38;99572.31;;;26.10;70.78
8051;BME280;4068;42.158;24.732;2022-08-11T06:12:22;99565.69;;;25.99;71.66
8051;BME280;4068;42.158;24.732;2022-08-11T06:14:55;99569.44;;;25.98;70.93
8051;BME280;4068;42.158;24.732;2022-08-11T06:17:25;99570.13;;;25.93;70.29
8051;BME280;4068;42.158;24.732;2022-08-11T06:19:58;99571.78;;;26.01;69.60
8051;BME280;4068;42.158;24.732;2022-08-11T06:22:25;99563.97;;;26.05;70.27
8051;BME280;4068;42.158;24.732;2022-08-11T06:24:57;99563.66;;;25.94;71.17
8051;BME280;4068;42.158;24.732;2022-08-11T06:27:25;99570.47;;;26.22;70.25
8051;BME280;4068;42.158;24.732;2022-08-11T06:29:52;99559.84;;;26.21;70.23
8051;BME280;4068;42.158;24.732;2022-08-11T06:32:20;99560.91;;;26.20;71.03
8051;BME280;4068;42.158;24.732;2022-08-11T06:43:46;99538.19;;;26.14;70.46
8051;BME280;4068;42.158;24.732;2022-08-11T06:46:16;99561.97;;;26.37;69.26
8051;BME280;4068;42.158;24.732;2022-08-11T06:48:47;99546.03;;;26.41;68.12
8051;BME280;4068;42.158;24.732;2022-08-11T06:51:14;99561.13;;;26.55;68.68
8051;BME280;4068;42.158;24.732;2022-08-11T06:56:10;99568.84;;;26.58;67.52
8051;BME280;4068;42.158;24.732;2022-08-11T06:58:56;99564.59;;;26.62;66.65
8051;BME280;4068;42.158;24.732;2022-08-11T07:02:00;99556.28;;;26.76;66.79
8051;BME280;4068;42.158;24.732;2022-08-11T07:04:34;99546.63;;;26.61;67.54
8051;BME280;4068;42.158;24.732;2022-08-11T07:13:40;99567.81;;;27.32;64.29
8051;BME280;4068;42.158;24.732;2022-08-11T07:16:28;99572.63;;;27.48;63.02
8051;BME280;4068;42.158;24.732;2022-08-11T07:19:01;99563.50;;;27.43;64.01
8051;BME280;4068;42.158;24.732;2022-08-11T07:21:46;99565.91;;;27.51;64.46
8051;BME280;4068;42.158;24.732;2022-08-11T07:24:40;99567.44;;;27.59;63.70
8051;BME280;4068;42.158;24.732;2022-08-11T07:27:30;99566.38;;;27.71;62.81
8051;BME280;4068;42.158;24.732;2022-08-11T07:30:17;99571.25;;;27.69;63.12
8051;BME280;4068;42.158;24.732;2022-08-11T07:32:51;99570.53;;;27.74;63.64
8051;BME280;4068;42.158;24.732;2022-08-11T07:37:58;99558.44;;;27.82;63.42
8051;BME280;4068;42.158;24.732;2022-08-11T07:40:25;99558.22;;;27.95;63.78
8051;BME280;4068;42.158;24.732;2022-08-11T07:42:52;99546.84;;;28.10;62.04
8051;BME280;4068;42.158;24.732;2022-08-11T07:45:21;99573.03;;;28.35;61.69
8051;BME280;4068;42.158;24.732;2022-08-11T07:48:08;99558.69;;;28.28;62.86
8051;BME280;4068;42.158;24.732;2022-08-11T07:50:53;99568.41;;;28.35;62.45
8051;BME280;4068;42.158;24.732;2022-08-11T07:53:38;99545.84;;;28.40;61.56
8051;BME280;4068;42.158;24.732;2022-08-11T07:56:05;99550.31;;;28.58;60.93
8051;BME280;4068;42.158;24.732;2022-08-11T07:58:34;99564.69;;;28.53;60.67
8051;BME280;4068;42.158;24.732;2022-08-11T08:01:21;99556.75;;;28.52;60.44
8051;BME280;4068;42.158;24.732;2022-08-11T08:04:07;99560.97;;;28.71;60.39
8051;BME280;4068;42.158;24.732;2022-08-11T08:06:52;99554.81;;;28.64;59.65
8051;BME280;4068;42.158;24.732;2022-08-11T08:09:37;99560.47;;;28.34;61.10
8051;BME280;4068;42.158;24.732;2022-08-11T08:12:24;99531.88;;;28.36;60.80
8051;BME280;4068;42.158;24.732;2022-08-11T08:15:13;99531.47;;;28.56;60.38
8051;BME280;4068;42.158;24.732;2022-08-11T08:17:59;99548.19;;;28.72;59.70
8051;BME280;4068;42.158;24.732;2022-08-11T08:20:38;99541.38;;;28.74;59.70
8051;BME280;4068;42.158;24.732;2022-08-11T08:23:05;99540.25;;;28.70;58.97
8051;BME280;4068;42.158;24.732;2022-08-11T08:25:38;99550.50;;;28.80;60.46
8051;BME280;4068;42.158;24.732;2022-08-11T08:28:09;99545.25;;;28.90;59.92
8051;BME280;4068;42.158;24.732;2022-08-11T08:30:36;99537.09;;;29.07;57.64
8051;BME280;4068;42.158;24.732;2022-08-11T08:33:14;99537.75;;;29.15;56.64
8051;BME280;4068;42.158;24.732;2022-08-11T08:35:40;99538.47;;;29.10;55.89
8051;BME280;4068;42.158;24.732;2022-08-11T08:38:06;99538.84;;;29.14;55.53
8051;BME280;4068;42.158;24.732;2022-08-11T08:40:32;99518.88;;;28.96;55.89
8051;BME280;4068;42.158;24.732;2022-08-11T08:43:02;99536.34;;;28.66;56.49
8051;BME280;4068;42.158;24.732;2022-08-11T08:45:33;99529.69;;;28.50;57.38
8051;BME280;4068;42.158;24.732;2022-08-11T08:48:03;99539.13;;;28.83;57.07
8051;BME280;4068;42.158;24.732;2022-08-11T08:50:36;99514.13;;;28.91;56.03
8051;BME280;4068;42.158;24.732;2022-08-11T08:53:24;99517.31;;;29.00;55.17
8051;BME280;4068;42.158;24.732;2022-08-11T08:55:55;99513.66;;;29.23;56.11
8051;BME280;4068;42.158;24.732;2022-08-11T08:58:22;99517.44;;;29.39;55.05
8051;BME280;4068;42.158;24.732;2022-08-11T09:00:50;99529.19;;;29.57;53.81
8051;BME280;4068;42.158;24.732;2022-08-11T09:03:17;99526.31;;;29.47;54.17
8051;BME280;4068;42.158;24.732;2022-08-11T09:05:45;99529.09;;;29.86;53.69
8051;BME280;4068;42.158;24.732;2022-08-11T09:08:11;99518.22;;;30.08;51.74
8051;BME280;4068;42.158;24.732;2022-08-11T09:10:37;99512.19;;;30.06;51.47
8051;BME280;4068;42.158;24.732;2022-08-11T09:13:05;99505.31;;;30.03;51.70
8051;BME280;4068;42.158;24.732;2022-08-11T09:15:33;99514.47;;;30.36;51.34
8051;BME280;4068;42.158;24.732;2022-08-11T09:18:03;99497.69;;;30.50;49.75
8051;BME280;4068;42.158;24.732;2022-08-11T09:20:35;99479.31;;;30.45;49.52
8051;BME280;4068;42.158;24.732;2022-08-11T09:23:04;99501.00;;;30.79;49.08
8051;BME280;4068;42.158;24.732;2022-08-11T09:25:55;99497.75;;;31.09;46.61
8051;BME280;4068;42.158;24.732;2022-08-11T09:28:44;99472.66;;;30.90;47.66
8051;BME280;4068;42.158;24.732;2022-08-11T09:31:10;99490.94;;;30.85;46.93
8051;BME280;4068;42.158;24.732;2022-08-11T09:33:37;99487.75;;;30.93;47.42
8051;BME280;4068;42.158;24.732;2022-08-11T09:36:04;99480.31;;;31.15;47.02
8051;BME280;4068;42.158;24.732;2022-08-11T09:38:51;99486.16;;;31.29;46.45
8051;BME280;4068;42.158;24.732;2022-08-11T09:41:37;99472.78;;;31.38;46.51
8051;BME280;4068;42.158;24.732;2022-08-11T09:44:04;99456.44;;;30.84;47.33
8051;BME280;4068;42.158;24.732;2022-08-11T09:46:49;99464.91;;;31.09;47.50
8051;BME280;4068;42.158;24.732;2022-08-11T09:49:18;99464.38;;;31.12;47.27
8051;BME280;4068;42.158;24.732;2022-08-11T09:51:46;99471.59;;;30.96;48.19
8051;BME280;4068;42.158;24.732;2022-08-11T09:54:12;99447.03;;;31.39;46.70
8051;BME280;4068;42.158;24.732;2022-08-11T09:56:37;99460.53;;;31.89;46.06
8051;BME280;4068;42.158;24.732;2022-08-11T09:59:21;99457.69;;;32.26;45.40
8051;BME280;4068;42.158;24.732;2022-08-11T10:02:00;99454.38;;;32.14;44.54
8051;BME280;4068;42.158;24.732;2022-08-11T10:04:46;99464.25;;;32.25;44.62
8051;BME280;4068;42.158;24.732;2022-08-11T10:07:14;99464.63;;;31.86;44.77
8051;BME280;4068;42.158;24.732;2022-08-11T10:12:36;99456.69;;;31.90;44.72
8051;BME280;4068;42.158;24.732;2022-08-11T10:15:13;99453.88;;;31.79;44.80
8051;BME280;4068;42.158;24.732;2022-08-11T10:18:10;99458.88;;;31.88;44.28
8051;BME280;4068;42.158;24.732;2022-08-11T10:21:00;99454.00;;;32.00;44.16
8051;BME280;4068;42.158;24.732;2022-08-11T10:23:32;99445.88;;;32.21;44.66
8051;BME280;4068;42.158;24.732;2022-08-11T10:26:19;99436.38;;;32.54;44.28
8051;BME280;4068;42.158;24.732;2022-08-11T10:29:05;99437.69;;;32.46;43.10
8051;BME280;4068;42.158;24.732;2022-08-11T10:31:55;99447.84;;;32.35;43.50
8051;BME280;4068;42.158;24.732;2022-08-11T10:34:40;99441.28;;;32.42;43.36
8051;BME280;4068;42.158;24.732;2022-08-11T10:37:06;99439.09;;;32.44;42.49
8051;BME280;4068;42.158;24.732;2022-08-11T10:39:33;99420.22;;;32.73;42.13
8051;BME280;4068;42.158;24.732;2022-08-11T10:42:00;99432.03;;;32.89;42.22
8051;BME280;4068;42.158;24.732;2022-08-11T10:44:47;99443.03;;;33.25;41.33
8051;BME280;4068;42.158;24.732;2022-08-11T10:47:15;99432.28;;;33.39;40.61
8051;BME280;4068;42.158;24.732;2022-08-11T10:52:49;99425.44;;;33.16;40.27
8051;BME280;4068;42.158;24.732;2022-08-11T10:55:37;99409.78;;;32.96;40.84
8051;BME280;4068;42.158;24.732;2022-08-11T10:58:22;99427.59;;;32.67;39.90
8051;BME280;4068;42.158;24.732;2022-08-11T11:01:08;99399.16;;;32.05;41.95
8051;BME280;4068;42.158;24.732;2022-08-11T11:03:35;99391.78;;;32.06;41.42
8051;BME280;4068;42.158;24.732;2022-08-11T11:06:08;99403.09;;;32.25;41.12
8051;BME280;4068;42.158;24.732;2022-08-11T11:08:40;99413.59;;;32.59;40.74
8051;BME280;4068;42.158;24.732;2022-08-11T11:11:30;99398.81;;;32.96;38.88
8051;BME280;4068;42.158;24.732;2022-08-11T11:14:19;99413.34;;;33.12;39.09
8051;BME280;4068;42.158;24.732;2022-08-11T11:17:05;99415.00;;;33.23;37.52
8051;BME280;4068;42.158;24.732;2022-08-11T11:19:41;99388.91;;;32.79;38.94
8051;BME280;4068;42.158;24.732;2022-08-11T11:22:09;99379.53;;;32.49;39.76
8051;BME280;4068;42.158;24.732;2022-08-11T11:25:11;99398.41;;;32.25;40.00
8051;BME280;4068;42.158;24.732;2022-08-11T11:30:31;99394.34;;;32.33;38.73
8051;BME280;4068;42.158;24.732;2022-08-11T11:33:49;99388.66;;;33.07;38.26
8051;BME280;4068;42.158;24.732;2022-08-11T11:38:51;99374.97;;;33.93;35.95
8051;BME280;4068;42.158;24.732;2022-08-11T11:41:22;99363.81;;;34.18;36.57
8051;BME280;4068;42.158;24.732;2022-08-11T11:43:55;99358.78;;;34.36;35.47
8051;BME280;4068;42.158;24.732;2022-08-11T11:46:41;99366.53;;;33.68;35.40
8051;BME280;4068;42.158;24.732;2022-08-11T11:49:09;99381.94;;;33.59;35.53
8051;BME280;4068;42.158;24.732;2022-08-11T11:51:36;99380.25;;;33.79;35.16
8051;BME280;4068;42.158;24.732;2022-08-11T11:54:03;99371.22;;;33.63;34.73
8051;BME280;4068;42.158;24.732;2022-08-11T11:56:29;99368.22;;;33.54;35.69
8051;BME280;4068;42.158;24.732;2022-08-11T11:58:55;99355.63;;;33.43;35.18
8051;BME280;4068;42.158;24.732;2022-08-11T12:01:39;99360.22;;;33.63;34.82
8051;BME280;4068;42.158;24.732;2022-08-11T12:04:10;99334.72;;;33.42;35.62
8051;BME280;4068;42.158;24.732;2022-08-11T12:06:36;99353.84;;;33.72;36.12
8051;BME280;4068;42.158;24.732;2022-08-11T12:09:03;99344.25;;;33.75;36.87
8051;BME280;4068;42.158;24.732;2022-08-11T12:11:29;99336.16;;;33.29;37.34
8051;BME280;4068;42.158;24.732;2022-08-11T12:14:16;99350.44;;;33.15;37.15
8051;BME280;4068;42.158;24.732;2022-08-11T12:16:45;99325.22;;;32.93;35.67
8051;BME280;4068;42.158;24.732;2022-08-11T12:19:15;99352.66;;;33.03;36.49
8051;BME280;4068;42.158;24.732;2022-08-11T12:21:41;99317.53;;;33.05;36.77
8051;BME280;4068;42.158;24.732;2022-08-11T12:24:27;99317.22;;;33.17;36.84
8051;BME280;4068;42.158;24.732;2022-08-11T12:27:12;99320.97;;;33.47;37.00
8051;BME280;4068;42.158;24.732;2022-08-11T12:29:56;99318.13;;;33.67;35.76
8051;BME280;4068;42.158;24.732;2022-08-11T12:32:30;99312.81;;;33.26;36.37
8051;BME280;4068;42.158;24.732;2022-08-11T12:34:56;99326.25;;;33.28;36.30
8051;BME280;4068;42.158;24.732;2022-08-11T12:37:32;99340.31;;;32.90;36.91
8051;BME280;4068;42.158;24.732;2022-08-11T12:40:04;99319.19;;;32.85;36.95
8051;BME280;4068;42.158;24.732;2022-08-11T12:42:51;99310.38;;;32.99;36.61
8051;BME280;4068;42.158;24.732;2022-08-11T12:45:37;99331.19;;;33.20;36.94
8051;BME280;4068;42.158;24.732;2022-08-11T12:48:07;99335.38;;;32.97;36.62
8051;BME280;4068;42.158;24.732;2022-08-11T12:51:01;99324.13;;;32.94;36.82
8051;BME280;4068;42.158;24.732;2022-08-11T12:53:56;99329.09;;;32.71;37.69
8051;BME280;4068;42.158;24.732;2022-08-11T12:56:29;99336.75;;;32.90;37.29
8051;BME280;4068;42.158;24.732;2022-08-11T12:59:15;99324.66;;;32.96;36.92
8051;BME280;4068;42.158;24.732;2022-08-11T13:02:01;99328.53;;;32.84;36.38
8051;BME280;4068;42.158;24.732;2022-08-11T13:04:46;99329.34;;;32.85;36.63
8051;BME280;4068;42.158;24.732;2022-08-11T13:07:27;99323.78;;;33.31;35.91
8051;BME280;4068;42.158;24.732;2022-08-11T13:09:54;99325.06;;;33.60;35.62
8051;BME280;4068;42.158;24.732;2022-08-11T13:12:22;99316.53;;;33.56;35.27
8051;BME280;4068;42.158;24.732;2022-08-11T13:15:10;99322.16;;;33.04;36.58
8051;BME280;4068;42.158;24.732;2022-08-11T13:17:38;99314.78;;;33.00;36.97
8051;BME280;4068;42.158;24.732;2022-08-11T13:20:08;99323.31;;;32.88;37.00
8051;BME280;4068;42.158;24.732;2022-08-11T13:22:35;99297.13;;;33.37;36.08
8051;BME280;4068;42.158;24.732;2022-08-11T13:25:03;99303.88;;;33.65;35.45
8051;BME280;4068;42.158;24.732;2022-08-11T13:27:29;99314.25;;;33.79;36.03
8051;BME280;4068;42.158;24.732;2022-08-11T13:29:55;99297.00;;;33.63;36.05
8051;BME280;4068;42.158;24.732;2022-08-11T13:32:41;99315.09;;;33.79;35.49
8051;BME280;4068;42.158;24.732;2022-08-11T13:35:11;99289.56;;;34.13;35.76
8051;BME280;4068;42.158;24.732;2022-08-11T13:37:38;99305.19;;;34.57;34.71
8051;BME280;4068;42.158;24.732;2022-08-11T13:40:04;99301.34;;;34.58;35.34
8051;BME280;4068;42.158;24.732;2022-08-11T13:42:30;99276.16;;;34.70;35.21
8051;BME280;4068;42.158;24.732;2022-08-11T13:44:56;99298.72;;;34.78;34.92
8051;BME280;4068;42.158;24.732;2022-08-11T13:47:22;99298.09;;;34.51;34.73
8051;BME280;4068;42.158;24.732;2022-08-11T13:49:49;99283.25;;;34.13;35.61
8051;BME280;4068;42.158;24.732;2022-08-11T13:52:16;99296.88;;;33.94;36.11
8051;BME280;4068;42.158;24.732;2022-08-11T13:54:45;99284.88;;;33.69;36.06
8051;BME280;4068;42.158;24.732;2022-08-11T13:57:13;99277.69;;;33.73;36.86
8051;BME280;4068;42.158;24.732;2022-08-11T13:59:41;99295.72;;;34.00;35.62
8051;BME280;4068;42.158;24.732;2022-08-11T14:02:13;99290.53;;;34.38;35.33
8051;BME280;4068;42.158;24.732;2022-08-11T14:04:44;99285.38;;;34.61;34.58
8051;BME280;4068;42.158;24.732;2022-08-11T14:07:17;99283.81;;;34.84;34.06
8051;BME280;4068;42.158;24.732;2022-08-11T14:09:44;99279.94;;;34.50;35.08
8051;BME280;4068;42.158;24.732;2022-08-11T14:12:21;99265.69;;;34.09;36.00
8051;BME280;4068;42.158;24.732;2022-08-11T14:18:10;99291.63;;;33.42;37.87
8051;BME280;4068;42.158;24.732;2022-08-11T14:20:39;99287.25;;;33.31;38.13
8051;BME280;4068;42.158;24.732;2022-08-11T14:23:28;99285.91;;;33.23;38.00
8051;BME280;4068;42.158;24.732;2022-08-11T14:25:56;99287.34;;;32.84;38.24
8051;BME280;4068;42.158;24.732;2022-08-11T14:28:41;99285.13;;;32.61;38.59
8051;BME280;4068;42.158;24.732;2022-08-11T14:31:07;99298.31;;;32.33;39.86
8051;BME280;4068;42.158;24.732;2022-08-11T14:33:34;99307.38;;;32.33;39.69
8051;BME280;4068;42.158;24.732;2022-08-11T14:36:02;99304.56;;;31.97;39.86
8051;BME280;4068;42.158;24.732;2022-08-11T14:38:32;99313.31;;;31.99;39.58
8051;BME280;4068;42.158;24.732;2022-08-11T14:40:59;99307.00;;;31.94;39.10
8051;BME280;4068;42.158;24.732;2022-08-11T14:43:43;99304.50;;;31.72;39.92
8051;BME280;4068;42.158;24.732;2022-08-11T14:46:29;99290.44;;;31.53;40.01
8051;BME280;4068;42.158;24.732;2022-08-11T14:49:14;99290.22;;;31.64;39.66
8051;BME280;4068;42.158;24.732;2022-08-11T14:51:41;99293.28;;;31.78;39.54
8051;BME280;4068;42.158;24.732;2022-08-11T14:54:08;99309.22;;;31.97;38.92
8051;BME280;4068;42.158;24.732;2022-08-11T14:56:52;99290.09;;;32.17;38.33
8051;BME280;4068;42.158;24.732;2022-08-11T14:59:18;99278.03;;;32.29;38.28
8051;BME280;4068;42.158;24.732;2022-08-11T15:01:45;99298.88;;;32.50;38.11
8051;BME280;4068;42.158;24.732;2022-08-11T15:04:29;99294.75;;;32.53;37.08
8051;BME280;4068;42.158;24.732;2022-08-11T15:06:54;99297.50;;;32.53;36.42
8051;BME280;4068;42.158;24.732;2022-08-11T15:09:20;99280.50;;;32.30;36.35
8051;BME280;4068;42.158;24.732;2022-08-11T15:11:46;99307.09;;;32.14;36.97
8051;BME280;4068;42.158;24.732;2022-08-11T15:14:30;99276.81;;;31.83;37.93
8051;BME280;4068;42.158;24.732;2022-08-11T15:17:15;99273.50;;;31.66;38.14
8051;BME280;4068;42.158;24.732;2022-08-11T15:19:43;99287.91;;;31.41;38.40
8051;BME280;4068;42.158;24.732;2022-08-11T15:22:27;99275.25;;;31.24;38.88
8051;BME280;4068;42.158;24.732;2022-08-11T15:25:12;99295.72;;;31.11;39.84
8051;BME280;4068;42.158;24.732;2022-08-11T15:27:38;99289.09;;;31.02;40.17
8051;BME280;4068;42.158;24.732;2022-08-11T15:30:24;99292.53;;;30.87;40.46
8051;BME280;4068;42.158;24.732;2022-08-11T15:33:11;99266.66;;;30.68;41.20
8051;BME280;4068;42.158;24.732;2022-08-11T15:35:59;99279.00;;;30.70;40.89
8051;BME280;4068;42.158;24.732;2022-08-11T15:39:15;99283.34;;;30.66;41.08
8051;BME280;4068;42.158;24.732;2022-08-11T15:41:48;99284.03;;;30.46;41.34
8051;BME280;4068;42.158;24.732;2022-08-11T15:44:36;99286.66;;;30.36;42.03
8051;BME280;4068;42.158;24.732;2022-08-11T15:47:26;99271.25;;;30.24;42.25
8051;BME280;4068;42.158;24.732;2022-08-11T15:49:54;99292.34;;;30.34;42.44
8051;BME280;4068;42.158;24.732;2022-08-11T15:52:29;99270.84;;;30.10;42.71
8051;BME280;4068;42.158;24.732;2022-08-11T15:54:57;99291.31;;;30.08;42.49
8051;BME280;4068;42.158;24.732;2022-08-11T15:57:27;99282.69;;;29.94;43.10
8051;BME280;4068;42.158;24.732;2022-08-11T16:00:13;99321.28;;;29.98;43.95
8051;BME280;4068;42.158;24.732;2022-08-11T16:02:58;99330.88;;;29.56;46.88
8051;BME280;4068;42.158;24.732;2022-08-11T16:05:43;99334.00;;;29.25;48.38
8051;BME280;4068;42.158;24.732;2022-08-11T16:08:11;99332.59;;;29.06;49.81
8051;BME280;4068;42.158;24.732;2022-08-11T16:10:39;99336.28;;;28.78;50.83
8051;BME280;4068;42.158;24.732;2022-08-11T16:13:05;99352.41;;;28.62;51.21
8051;BME280;4068;42.158;24.732;2022-08-11T16:15:33;99363.91;;;28.35;51.97
8051;BME280;4068;42.158;24.732;2022-08-11T16:18:19;99377.06;;;28.10;52.63
8051;BME280;4068;42.158;24.732;2022-08-11T16:20:45;99373.22;;;27.70;54.25
8051;BME280;4068;42.158;24.732;2022-08-11T16:23:16;99381.53;;;27.75;53.53
8051;BME280;4068;42.158;24.732;2022-08-11T16:25:43;99428.50;;;27.94;53.65
8051;BME280;4068;42.158;24.732;2022-08-11T16:28:11;99434.59;;;27.72;62.29
8051;BME280;4068;42.158;24.732;2022-08-11T16:30:40;99421.66;;;26.97;68.66
8051;BME280;4068;42.158;24.732;2022-08-11T16:33:08;99425.31;;;26.60;71.20
8051;BME280;4068;42.158;24.732;2022-08-11T16:35:36;99436.19;;;26.30;73.20
8051;BME280;4068;42.158;24.732;2022-08-11T16:38:24;99440.94;;;25.79;78.93
8051;BME280;4068;42.158;24.732;2022-08-11T16:41:01;99456.16;;;25.43;83.55
8051;BME280;4068;42.158;24.732;2022-08-11T16:43:29;99443.00;;;25.14;86.80
8051;BME280;4068;42.158;24.732;2022-08-11T16:46:16;99457.13;;;24.66;91.70
8051;BME280;4068;42.158;24.732;2022-08-11T16:49:03;99439.03;;;24.08;97.68
8051;BME280;4068;42.158;24.732;2022-08-11T16:51:30;99447.00;;;23.83;100.00
8051;BME280;4068;42.158;24.732;2022-08-11T16:53:56;99480.97;;;23.72;100.00
8051;BME280;4068;42.158;24.732;2022-08-11T16:56:28;99482.03;;;23.57;100.00
8051;BME280;4068;42.158;24.732;2022-08-11T16:58:55;99494.31;;;23.47;100.00
8051;BME280;4068;42.158;24.732;2022-08-11T17:02:07;99504.53;;;23.38;100.00
8051;BME280;4068;42.158;24.732;2022-08-11T17:04:49;99487.44;;;23.24;100.00
8051;BME280;4068;42.158;24.732;2022-08-11T17:07:36;99517.22;;;23.31;100.00
8051;BME280;4068;42.158;24.732;2022-08-11T17:10:26;99508.69;;;23.27;100.00
8051;BME280;4068;42.158;24.732;2022-08-11T17:13:14;99523.03;;;23.21;100.00
8051;BME280;4068;42.158;24.732;2022-08-11T17:15:45;99500.94;;;23.04;100.00
8051;BME280;4068;42.158;24.732;2022-08-11T17:18:30;99509.44;;;22.81;100.00
8051;BME280;4068;42.158;24.732;2022-08-11T17:21:10;99533.53;;;22.82;100.00
8051;BME280;4068;42.158;24.732;2022-08-11T17:23:43;99534.56;;;22.81;100.00
8051;BME280;4068;42.158;24.732;2022-08-11T17:26:21;99539.81;;;22.89;100.00
8051;BME280;4068;42.158;24.732;2022-08-11T17:28:54;99515.84;;;22.80;100.00
8051;BME280;4068;42.158;24.732;2022-08-11T17:31:22;99544.97;;;22.84;100.00
8051;BME280;4068;42.158;24.732;2022-08-11T17:34:08;99527.94;;;22.84;100.00
8051;BME280;4068;42.158;24.732;2022-08-11T17:36:53;99519.59;;;22.79;100.00
8051;BME280;4068;42.158;24.732;2022-08-11T17:39:23;99536.22;;;22.75;100.00
8051;BME280;4068;42.158;24.732;2022-08-11T17:41:50;99532.91;;;22.80;100.00
8051;BME280;4068;42.158;24.732;2022-08-11T17:44:36;99525.41;;;22.75;100.00
8051;BME280;4068;42.158;24.732;2022-08-11T17:47:21;99530.81;;;22.69;100.00